Time;durP1;ratioP1;P1;durP2;ratioP2;P2;SDS_P1;SDS_P2;PMS_P1;PMS_P2;Temp;Humidity;BMP_temperature;BMP_pressure;BME280_temperature;BME280_humidity;BME280_pressure;Samples;Min_cycle;Max_cycle;Signal;HPM_P1;HPM_P2
2023/07/16 00:00:26;;;;;;;2.40;1.00;;;;;;;17.73;63.37;100813.41;4996093;28;96624;-27
2023/07/16 00:02:51;;;;;;;3.28;1.27;;;;;;;17.74;63.68;100830.72;4996865;28;96772;-27
2023/07/16 00:05:16;;;;;;;7.40;1.35;;;;;;;17.71;63.90;100823.66;4996519;28;98021;-27
2023/07/16 00:07:41;;;;;;;5.40;1.08;;;;;;;17.73;63.80;100839.91;4994870;28;97971;-27
2023/07/16 00:10:07;;;;;;;1.58;0.65;;;;;;;17.71;63.83;100839.19;4996669;28;96561;-27
2023/07/16 00:12:32;;;;;;;2.40;1.02;;;;;;;17.67;64.02;100830.41;4996258;28;96825;-27
2023/07/16 00:14:58;;;;;;;2.70;1.08;;;;;;;17.70;64.26;100838.31;4996268;28;101030;-27
2023/07/16 00:17:23;;;;;;;3.55;1.30;;;;;;;17.67;64.38;100829.53;4996452;28;97984;-27
2023/07/16 00:19:48;;;;;;;2.67;1.05;;;;;;;17.69;63.89;100835.75;4996555;28;96683;-27
2023/07/16 00:22:14;;;;;;;5.93;1.20;;;;;;;17.74;64.42;100836.19;4996666;28;96848;-27
2023/07/16 00:24:39;;;;;;;6.45;1.10;;;;;;;17.69;64.43;100838.50;4995663;28;97921;-27
2023/07/16 00:27:04;;;;;;;2.08;0.80;;;;;;;17.64;64.22;100830.69;4995814;28;108592;-27
2023/07/16 00:29:30;;;;;;;2.03;0.90;;;;;;;17.60;64.59;100826.50;4996462;28;96589;-26
2023/07/16 00:31:55;;;;;;;2.00;0.88;;;;;;;17.59;64.99;100825.63;4996241;28;96814;-27
2023/07/16 00:34:20;;;;;;;1.90;1.15;;;;;;;17.59;65.15;100836.59;4995746;28;98848;-27
2023/07/16 00:36:46;;;;;;;3.45;1.33;;;;;;;17.59;64.79;100844.81;4995675;28;97824;-27
2023/07/16 00:39:11;;;;;;;2.63;1.13;;;;;;;17.60;64.68;100841.06;4995173;28;96843;-27
2023/07/16 00:41:36;;;;;;;4.20;1.02;;;;;;;17.54;65.12;100838.00;4996460;28;96855;-28
2023/07/16 00:44:02;;;;;;;3.50;1.20;;;;;;;17.60;65.19;100846.53;4995773;28;97901;-27
2023/07/16 00:46:27;;;;;;;3.92;1.13;;;;;;;17.55;65.30;100834.28;4995766;28;97793;-27
2023/07/16 00:48:53;;;;;;;4.40;1.25;;;;;;;17.54;65.35;100833.41;4995320;28;96779;-27
2023/07/16 00:51:22;;;;;;;2.03;0.90;;;;;;;17.52;65.70;100829.94;4996062;28;96789;-27
2023/07/16 00:53:48;;;;;;;3.72;1.48;;;;;;;17.54;65.71;100840.75;4993641;28;101650;-27
2023/07/16 00:56:16;;;;;;;4.35;1.48;;;;;;;17.56;65.14;100846.94;4994106;28;101559;-27
2023/07/16 00:58:41;;;;;;;6.20;1.45;;;;;;;17.49;65.72;100843.03;4994359;28;96770;-27
2023/07/16 01:01:07;;;;;;;4.57;1.10;;;;;;;17.50;65.61;100850.25;4995778;28;96876;-27
2023/07/16 01:03:32;;;;;;;4.88;1.35;;;;;;;17.50;65.93;100844.78;4995545;28;97443;-26
2023/07/16 01:06:14;;;;;;;4.20;1.45;;;;;;;17.45;65.96;100841.56;4995823;28;97239;-29
2023/07/16 01:08:47;;;;;;;5.13;1.33;;;;;;;17.45;66.18;100842.47;4994521;28;96680;-27
2023/07/16 01:11:13;;;;;;;3.53;1.27;;;;;;;17.46;65.90;100838.69;4994211;28;96936;-27
2023/07/16 01:13:40;;;;;;;6.88;1.50;;;;;;;17.45;65.46;100850.69;4994743;28;97975;-27
2023/07/16 01:16:05;;;;;;;4.38;1.35;;;;;;;17.47;65.66;100840.47;4993706;28;100876;-27
2023/07/16 01:18:31;;;;;;;3.60;1.55;;;;;;;17.48;65.52;100849.53;4995552;28;96487;-27
2023/07/16 01:20:56;;;;;;;3.97;1.30;;;;;;;17.49;65.95;100854.00;4995608;28;96912;-27
2023/07/16 01:23:53;;;;;;;2.88;1.30;;;;;;;17.48;65.81;100857.75;4995099;28;96720;-28
2023/07/16 01:26:56;;;;;;;4.10;1.33;;;;;;;17.49;65.84;100852.09;4995373;28;97813;-27
2023/07/16 01:29:29;;;;;;;4.47;1.80;;;;;;;17.46;66.44;100849.66;4995542;28;96658;-28
2023/07/16 01:31:56;;;;;;;4.07;1.48;;;;;;;17.43;66.15;100840.88;4995351;28;96903;-27
2023/07/16 01:34:23;;;;;;;6.53;1.70;;;;;;;17.45;65.86;100847.03;4993470;28;101282;-27
2023/07/16 01:36:49;;;;;;;4.38;1.73;;;;;;;17.41;66.22;100841.00;4993235;28;101268;-27
2023/07/16 01:39:15;;;;;;;6.63;1.80;;;;;;;17.39;66.53;100854.81;4993287;28;96698;-27
2023/07/16 01:41:40;;;;;;;2.53;1.52;;;;;;;17.44;66.07;100853.53;4995268;28;96890;-27
2023/07/16 01:44:06;;;;;;;2.83;1.55;;;;;;;17.39;66.81;100848.47;4994975;28;97420;-27
2023/07/16 01:46:32;;;;;;;3.58;1.50;;;;;;;17.44;66.32;100853.53;4994550;28;97793;-28
2023/07/16 01:48:57;;;;;;;5.35;1.67;;;;;;;17.41;66.55;100863.75;4993300;28;96791;-27
2023/07/16 01:51:22;;;;;;;2.35;1.52;;;;;;;17.40;66.63;100864.78;4994925;28;96819;-27
2023/07/16 01:53:48;;;;;;;8.52;2.00;;;;;;;17.39;66.57;100860.28;4994774;28;97933;-27
2023/07/16 01:56:13;;;;;;;5.85;1.60;;;;;;;17.33;67.00;100860.88;4994890;28;99649;-27
2023/07/16 01:58:39;;;;;;;4.20;1.73;;;;;;;17.39;66.76;100870.38;4995019;28;96676;-27
2023/07/16 02:01:04;;;;;;;4.30;1.30;;;;;;;17.31;67.45;100857.41;4994800;28;96708;-27
2023/07/16 02:03:29;;;;;;;5.15;1.80;;;;;;;17.33;67.39;100862.75;4994388;28;98127;-27
2023/07/16 02:05:55;;;;;;;4.47;1.63;;;;;;;17.34;66.57;100864.47;4993523;28;97838;-28
2023/07/16 02:08:20;;;;;;;4.10;1.70;;;;;;;17.32;67.15;100853.63;4994982;28;96672;-27
2023/07/16 02:10:48;;;;;;;4.78;1.67;;;;;;;17.24;67.34;100839.78;4994630;28;96627;-26
2023/07/16 02:13:13;;;;;;;4.60;1.98;;;;;;;17.27;67.66;100860.53;4993112;28;100755;-27
2023/07/16 02:15:38;;;;;;;2.28;1.23;;;;;;;17.33;67.49;100870.97;4994190;28;97822;-27
2023/07/16 02:18:05;;;;;;;6.93;1.83;;;;;;;17.30;67.81;100869.34;4994791;28;96574;-27
2023/07/16 02:20:30;;;;;;;2.75;1.33;;;;;;;17.32;67.59;100861.84;4993749;28;96889;-29
2023/07/16 02:22:55;;;;;;;4.65;1.90;;;;;;;17.30;67.38;100846.56;4994083;28;99640;-28
2023/07/16 02:25:21;;;;;;;3.90;1.52;;;;;;;17.26;68.46;100854.22;4994777;28;97344;-27
2023/07/16 02:27:46;;;;;;;6.88;2.00;;;;;;;17.29;68.42;100859.41;4994222;28;96749;-27
2023/07/16 02:30:15;;;;;;;4.63;1.80;;;;;;;17.29;68.56;100856.66;4994384;28;96806;-27
2023/07/16 02:32:40;;;;;;;5.20;2.20;;;;;;;17.26;67.98;100854.22;4992854;28;100883;-28
2023/07/16 02:35:06;;;;;;;5.93;1.83;;;;;;;17.27;67.71;100858.66;4994065;28;97909;-26
2023/07/16 02:37:31;;;;;;;5.88;1.45;;;;;;;17.27;68.27;100868.75;4994255;28;96660;-28
2023/07/16 02:39:57;;;;;;;3.90;1.77;;;;;;;17.24;69.03;100861.69;4994560;28;96816;-27
2023/07/16 02:42:22;;;;;;;3.58;1.85;;;;;;;17.19;68.14;100867.56;4994003;28;99434;-28
2023/07/16 02:44:47;;;;;;;7.53;1.73;;;;;;;17.17;68.53;100855.88;4994442;28;97879;-26
2023/07/16 02:47:13;;;;;;;3.72;0.98;;;;;;;17.16;69.16;100861.50;4994665;28;96668;-27
2023/07/16 02:49:39;;;;;;;4.75;1.70;;;;;;;17.20;68.76;100866.56;4994140;28;96862;-27
2023/07/16 02:52:06;;;;;;;4.38;1.67;;;;;;;17.18;68.93;100862.22;4992210;28;101035;-27
2023/07/16 02:54:31;;;;;;;5.05;1.92;;;;;;;17.16;69.29;100866.97;4992473;28;101508;-27
2023/07/16 02:56:57;;;;;;;2.95;1.50;;;;;;;17.12;69.42;100866.38;4994125;28;96709;-27
2023/07/16 02:59:22;;;;;;;3.08;1.52;;;;;;;17.13;70.24;100867.25;4994208;28;96820;-27
2023/07/16 03:01:47;;;;;;;3.35;1.35;;;;;;;17.10;69.62;100876.59;4993869;28;99141;-27
2023/07/16 03:04:13;;;;;;;3.03;1.58;;;;;;;17.13;69.45;100872.72;4993933;28;97865;-27
2023/07/16 03:06:38;;;;;;;3.50;1.25;;;;;;;17.09;69.61;100869.41;4993996;28;96497;-28
2023/07/16 03:09:04;;;;;;;4.15;1.33;;;;;;;17.08;69.64;100880.47;4994604;28;96780;-27
2023/07/16 03:11:29;;;;;;;4.38;1.67;;;;;;;17.05;69.62;100872.56;4993817;28;97905;-27
2023/07/16 03:13:54;;;;;;;3.90;1.70;;;;;;;17.06;69.24;100879.75;4993721;28;97955;-27
2023/07/16 03:16:20;;;;;;;6.38;1.40;;;;;;;17.04;69.46;100881.75;4994224;28;96483;-27
2023/07/16 03:18:45;;;;;;;6.78;1.50;;;;;;;16.96;69.36;100879.69;4997562;28;96794;-27
2023/07/16 03:21:11;;;;;;;4.10;1.65;;;;;;;17.06;69.17;100890.69;4997207;28;98023;-27
2023/07/16 03:23:37;;;;;;;2.45;1.45;;;;;;;17.01;69.68;100882.03;4995711;28;101406;-27
2023/07/16 03:26:02;;;;;;;5.10;2.13;;;;;;;17.05;69.13;100881.63;4997015;28;97369;-27
2023/07/16 03:28:27;;;;;;;4.55;1.50;;;;;;;16.99;69.46;100893.09;4997032;28;96811;-27
2023/07/16 03:30:53;;;;;;;9.85;2.58;;;;;;;17.00;69.59;100903.06;4997066;28;97885;-27
2023/07/16 03:33:19;;;;;;;5.97;1.85;;;;;;;16.95;69.87;100903.47;4997156;28;98750;-28
2023/07/16 03:35:45;;;;;;;5.22;1.88;;;;;;;16.98;69.98;100916.00;4996911;28;96736;-28
2023/07/16 03:38:12;;;;;;;5.75;2.03;;;;;;;16.90;69.67;100905.72;4997019;28;96514;-27
2023/07/16 03:40:37;;;;;;;5.38;1.88;;;;;;;16.93;69.99;100894.50;4996399;28;97467;-27
2023/07/16 03:43:03;;;;;;;5.50;1.73;;;;;;;16.93;69.54;100913.66;4996677;28;98038;-27
2023/07/16 03:45:28;;;;;;;3.72;2.33;;;;;;;16.97;69.46;100925.19;4997233;28;96536;-27
2023/07/16 03:47:54;;;;;;;3.42;1.85;;;;;;;16.95;69.44;100932.69;4996675;28;96824;-28
2023/07/16 03:50:19;;;;;;;4.03;1.83;;;;;;;16.91;69.39;100915.66;4996511;28;97543;-27
2023/07/16 03:52:45;;;;;;;7.88;2.15;;;;;;;16.90;69.60;100924.88;4996650;28;97118;-27
2023/07/16 03:55:10;;;;;;;5.30;1.73;;;;;;;16.90;69.08;100913.06;4996915;28;96525;-27
2023/07/16 03:57:36;;;;;;;4.65;1.92;;;;;;;16.89;68.85;100914.94;4997267;28;96787;-27
2023/07/16 04:00:07;;;;;;;8.70;2.33;;;;;;;16.91;68.86;100934.81;4996254;28;99259;-27
2023/07/16 04:02:33;;;;;;;7.28;2.00;;;;;;;16.90;68.99;100935.84;4995278;28;99233;-27
2023/07/16 04:04:58;;;;;;;3.20;1.65;;;;;;;16.88;68.44;100932.34;4996362;28;96490;-27
2023/07/16 04:07:23;;;;;;;3.42;1.60;;;;;;;16.87;68.71;100937.94;4996885;28;96903;-27
2023/07/16 04:09:49;;;;;;;3.88;1.63;;;;;;;16.89;68.80;100933.22;4996486;28;102283;-27
2023/07/16 04:12:14;;;;;;;6.90;2.20;;;;;;;16.88;68.72;100943.31;4994836;28;98908;-27
2023/07/16 04:14:39;;;;;;;4.18;1.55;;;;;;;16.89;68.55;100952.38;4996451;28;96675;-27
2023/07/16 04:17:05;;;;;;;4.88;1.70;;;;;;;16.85;68.31;100949.06;4996646;28;96792;-28
2023/07/16 04:19:30;;;;;;;4.00;1.52;;;;;;;16.84;68.97;100947.28;4996294;28;97976;-27
2023/07/16 04:21:56;;;;;;;3.03;1.65;;;;;;;16.87;69.01;100944.28;4996533;28;97255;-27
2023/07/16 04:24:21;;;;;;;4.60;1.98;;;;;;;16.91;69.06;100948.50;4996423;28;96601;-27
2023/07/16 04:26:46;;;;;;;3.40;1.80;;;;;;;16.94;68.57;100950.09;4996284;28;96772;-28
2023/07/16 04:29:12;;;;;;;4.10;1.83;;;;;;;16.95;69.08;100946.38;4994900;28;97266;-28
2023/07/16 04:31:37;;;;;;;4.00;1.83;;;;;;;16.94;68.87;100953.69;4996196;28;98022;-28
2023/07/16 04:34:03;;;;;;;3.67;1.42;;;;;;;16.93;68.67;100946.50;4996483;28;96521;-27
2023/07/16 04:36:28;;;;;;;4.82;1.90;;;;;;;16.96;68.38;100954.44;4996140;28;96814;-27
2023/07/16 04:38:53;;;;;;;3.58;2.10;;;;;;;16.98;68.36;100952.44;4996058;28;97919;-27
2023/07/16 04:41:19;;;;;;;5.00;1.85;;;;;;;17.06;68.40;100961.84;4995774;28;99013;-27
2023/07/16 04:43:44;;;;;;;6.22;2.03;;;;;;;17.05;67.96;100951.91;4996163;28;96501;-29
2023/07/16 04:46:11;;;;;;;3.40;1.65;;;;;;;17.08;67.83;100965.31;4996490;28;96979;-27
2023/07/16 04:48:37;;;;;;;4.22;1.92;;;;;;;17.08;67.59;100957.13;4994733;28;99265;-27
2023/07/16 04:51:02;;;;;;;3.78;2.03;;;;;;;17.00;65.94;100955.06;4995711;28;97775;-28
2023/07/16 04:53:27;;;;;;;3.13;1.45;;;;;;;17.09;66.14;100972.53;4995697;28;96788;-28
2023/07/16 04:55:53;;;;;;;4.28;1.73;;;;;;;17.08;66.09;100974.41;4995757;28;96734;-27
2023/07/16 04:58:18;;;;;;;3.35;1.60;;;;;;;16.98;65.78;100966.13;4995781;28;97879;-28
2023/07/16 05:00:43;;;;;;;5.63;1.98;;;;;;;17.03;66.38;100975.81;4995872;28;97275;-27
2023/07/16 05:03:09;;;;;;;4.47;1.50;;;;;;;17.05;66.29;100982.88;4995692;28;96447;-28
2023/07/16 05:05:34;;;;;;;3.60;2.00;;;;;;;17.02;66.07;100983.16;4996056;28;96774;-27
2023/07/16 05:08:00;;;;;;;3.95;1.98;;;;;;;17.05;65.76;100980.16;4995190;28;99486;-27
2023/07/16 05:10:27;;;;;;;2.88;1.40;;;;;;;17.06;65.93;100979.13;4995323;28;99291;-28
2023/07/16 05:12:53;;;;;;;3.63;1.65;;;;;;;17.06;66.03;100991.97;4994292;28;96547;-27
2023/07/16 05:15:18;;;;;;;4.40;1.92;;;;;;;17.10;66.39;101001.66;4995699;28;96756;-29
2023/07/16 05:17:44;;;;;;;6.30;1.95;;;;;;;17.09;66.44;100994.41;4994975;28;97413;-27
2023/07/16 05:20:09;;;;;;;3.78;1.80;;;;;;;17.12;66.41;100988.69;4995041;28;98736;-27
2023/07/16 05:22:35;;;;;;;3.33;1.50;;;;;;;17.17;66.76;100994.63;4995420;28;96606;-27
2023/07/16 05:25:01;;;;;;;2.83;1.60;;;;;;;17.14;66.14;100992.19;4995495;28;96901;-28
2023/07/16 05:27:27;;;;;;;3.97;1.83;;;;;;;17.24;66.77;100987.63;4995041;28;98364;-27
2023/07/16 05:29:52;;;;;;;4.97;1.83;;;;;;;17.25;66.87;100994.81;4995331;28;97203;-27
2023/07/16 05:32:17;;;;;;;4.70;1.77;;;;;;;17.26;66.13;100990.25;4995477;28;96535;-27
2023/07/16 05:34:43;;;;;;;4.65;1.95;;;;;;;17.31;66.15;100998.91;4995885;28;96788;-27
2023/07/16 05:37:08;;;;;;;4.72;1.63;;;;;;;17.33;66.39;100997.78;4994815;28;97912;-28
2023/07/16 05:39:34;;;;;;;4.10;1.80;;;;;;;17.38;65.77;101008.31;4994724;28;99294;-27
2023/07/16 05:42:01;;;;;;;5.57;2.38;;;;;;;17.38;65.53;101014.66;4994843;28;96557;-27
2023/07/16 05:44:27;;;;;;;3.92;1.80;;;;;;;17.48;65.61;101022.94;4995265;28;96763;-28
2023/07/16 05:46:52;;;;;;;4.07;1.80;;;;;;;17.52;64.96;101013.47;4994899;28;97398;-27
2023/07/16 05:49:17;;;;;;;3.90;2.10;;;;;;;17.60;64.96;101015.50;4994465;28;99104;-27
2023/07/16 05:51:43;;;;;;;5.57;2.22;;;;;;;17.62;64.70;101011.63;4995129;28;96486;-28
2023/07/16 05:54:08;;;;;;;5.57;2.10;;;;;;;17.67;65.07;101011.22;4995153;28;96745;-27
2023/07/16 05:56:36;;;;;;;4.90;2.30;;;;;;;17.70;64.73;101013.69;4994655;28;98016;-27
2023/07/16 05:59:02;;;;;;;5.38;2.28;;;;;;;17.66;64.61;101014.09;4994797;28;98819;-27
2023/07/16 06:01:27;;;;;;;5.05;2.45;;;;;;;17.64;64.15;101019.72;4995180;28;96559;-27
2023/07/16 06:03:53;;;;;;;5.22;2.28;;;;;;;17.64;64.59;101011.50;4994821;28;96822;-27
2023/07/16 06:06:19;;;;;;;6.43;2.63;;;;;;;17.71;64.11;101012.69;4992818;28;101185;-27
2023/07/16 06:08:44;;;;;;;3.95;2.00;;;;;;;17.79;64.20;101026.56;4994371;28;99611;-28
2023/07/16 06:11:10;;;;;;;4.78;2.33;;;;;;;17.85;64.04;101030.66;4994746;28;96490;-27
2023/07/16 06:13:35;;;;;;;6.07;2.50;;;;;;;17.90;63.80;101033.88;4994814;28;96779;-27
2023/07/16 06:16:01;;;;;;;7.20;2.60;;;;;;;17.91;63.57;101030.09;4994437;28;97952;-27
2023/07/16 06:18:26;;;;;;;6.10;1.75;;;;;;;18.11;64.63;101036.53;4994400;28;99223;-27
2023/07/16 06:20:52;;;;;;;7.25;2.42;;;;;;;18.20;63.90;101043.91;4994803;28;96696;-28
2023/07/16 06:23:18;;;;;;;4.85;2.05;;;;;;;18.13;63.67;101041.88;4993671;28;96851;-28
2023/07/16 06:25:44;;;;;;;4.97;2.30;;;;;;;18.03;64.04;101042.72;4994284;28;97842;-27
2023/07/16 06:28:10;;;;;;;4.88;1.77;;;;;;;17.96;64.55;101054.38;4994286;28;99088;-27
2023/07/16 06:30:37;;;;;;;8.30;2.80;;;;;;;17.86;64.96;101045.25;4992816;28;96594;-27
2023/07/16 06:33:02;;;;;;;9.65;2.28;;;;;;;17.79;64.86;101056.69;4993156;28;96795;-27
2023/07/16 06:35:27;;;;;;;5.05;2.10;;;;;;;17.79;65.01;101064.91;4994358;28;98082;-27
2023/07/16 06:37:53;;;;;;;4.93;1.90;;;;;;;18.08;64.66;101055.13;4994114;28;97851;-27
2023/07/16 06:40:18;;;;;;;4.25;1.88;;;;;;;18.26;64.46;101058.97;4994570;28;96583;-27
2023/07/16 06:42:44;;;;;;;3.35;1.98;;;;;;;18.27;64.62;101044.22;4994873;28;96885;-28
2023/07/16 06:45:09;;;;;;;4.00;2.00;;;;;;;18.49;63.78;101066.97;4994185;28;97915;-28
2023/07/16 06:47:35;;;;;;;5.40;2.25;;;;;;;18.58;63.59;101066.13;4994359;28;97938;-27
2023/07/16 06:50:00;;;;;;;4.80;2.10;;;;;;;18.68;63.85;101056.03;4993863;28;96525;-28
2023/07/16 06:52:27;;;;;;;6.03;2.30;;;;;;;18.64;63.92;101066.44;4996778;28;96743;-29
2023/07/16 06:54:55;;;;;;;4.53;2.20;;;;;;;18.66;63.75;101086.38;4995654;28;98945;-27
2023/07/16 06:57:22;;;;;;;4.50;1.92;;;;;;;18.63;63.97;101086.63;4995961;28;100895;-26
2023/07/16 06:59:47;;;;;;;6.50;2.17;;;;;;;18.40;64.12;101090.59;4996376;28;96672;-27
2023/07/16 07:02:13;;;;;;;6.00;2.35;;;;;;;18.25;64.59;101090.13;4997858;28;96923;-27
2023/07/16 07:04:38;;;;;;;4.63;2.15;;;;;;;18.22;64.79;101098.63;4997487;28;98337;-28
2023/07/16 07:07:04;;;;;;;5.32;2.10;;;;;;;18.15;64.50;101098.31;4997398;28;97736;-27
2023/07/16 07:09:29;;;;;;;7.38;2.70;;;;;;;18.13;64.94;101103.06;4997752;28;96610;-27
2023/07/16 07:11:55;;;;;;;5.40;2.13;;;;;;;18.05;65.05;101102.88;4997679;28;96837;-27
2023/07/16 07:14:20;;;;;;;7.22;2.30;;;;;;;18.14;64.58;101113.03;4997704;28;97179;-28
2023/07/16 07:16:45;;;;;;;5.35;2.50;;;;;;;18.30;64.68;101087.81;4997298;28;97820;-27
2023/07/16 07:19:11;;;;;;;5.28;2.53;;;;;;;18.61;63.83;101102.34;4996791;28;96690;-29
2023/07/16 07:21:36;;;;;;;7.03;2.35;;;;;;;18.71;63.43;101109.75;4997586;28;96829;-27
2023/07/16 07:24:01;;;;;;;7.13;2.50;;;;;;;18.56;63.15;101106.53;4996753;28;99197;-26
2023/07/16 07:26:27;;;;;;;5.80;2.72;;;;;;;18.44;63.76;101105.78;4997056;28;97274;-27
2023/07/16 07:28:53;;;;;;;7.53;2.83;;;;;;;18.36;63.73;101105.63;4997158;28;96555;-27
2023/07/16 07:31:18;;;;;;;7.65;2.58;;;;;;;18.29;64.05;101116.28;4995950;28;96784;-28
2023/07/16 07:33:43;;;;;;;9.65;2.92;;;;;;;18.18;64.80;101117.22;4997017;28;97528;-27
2023/07/16 07:36:09;;;;;;;5.78;2.50;;;;;;;18.13;64.93;101116.75;4996994;28;97474;-27
2023/07/16 07:38:34;;;;;;;5.43;2.58;;;;;;;18.15;64.93;101112.03;4997112;28;96662;-27
2023/07/16 07:41:00;;;;;;;5.35;2.13;;;;;;;18.33;65.26;101119.59;4997277;28;96869;-28
2023/07/16 07:43:26;;;;;;;3.83;1.88;;;;;;;18.37;65.29;101115.56;4996316;28;97832;-27
2023/07/16 07:45:52;;;;;;;6.88;2.40;;;;;;;18.36;65.00;101122.09;4995209;28;101412;-27
2023/07/16 07:48:18;;;;;;;8.48;2.35;;;;;;;18.34;65.03;101137.81;4996624;28;96796;-27
2023/07/16 07:50:43;;;;;;;5.32;2.03;;;;;;;18.29;65.16;101123.63;4996961;28;96614;-28
2023/07/16 07:53:08;;;;;;;6.82;2.67;;;;;;;18.28;65.47;101141.09;4996582;28;97386;-27
2023/07/16 07:55:35;;;;;;;5.80;2.13;;;;;;;18.27;65.87;101134.72;4996842;28;97252;-27
2023/07/16 07:58:00;;;;;;;6.70;2.22;;;;;;;18.29;65.66;101159.28;4995473;28;96841;-28
2023/07/16 08:00:26;;;;;;;3.95;1.75;;;;;;;18.27;65.67;101151.19;4997200;28;96830;-27
2023/07/16 08:02:51;;;;;;;3.22;1.63;;;;;;;18.31;65.65;101152.66;4994986;28;98977;-27
2023/07/16 08:05:16;;;;;;;5.95;2.20;;;;;;;18.43;65.85;101145.22;4996317;28;103503;-27
2023/07/16 08:07:42;;;;;;;4.70;2.25;;;;;;;18.60;65.04;101141.78;4996185;28;96649;-27
2023/07/16 08:10:07;;;;;;;6.63;2.35;;;;;;;18.68;64.73;101144.69;4996932;28;96739;-27
2023/07/16 08:12:33;;;;;;;5.85;2.22;;;;;;;18.88;65.83;101150.28;4996561;28;97427;-27
2023/07/16 08:14:58;;;;;;;7.07;2.33;;;;;;;18.98;64.37;101164.03;4995044;28;98329;-26
2023/07/16 08:17:23;;;;;;;4.60;2.15;;;;;;;19.00;64.06;101151.03;4996474;28;96707;-27
2023/07/16 08:19:49;;;;;;;4.55;2.00;;;;;;;18.97;64.35;101160.41;4996779;28;96751;-28
2023/07/16 08:22:14;;;;;;;5.10;2.40;;;;;;;18.87;63.78;101170.50;4996217;28;97313;-27
2023/07/16 08:24:39;;;;;;;5.63;2.47;;;;;;;18.79;64.47;101160.22;4996357;28;98733;-28
2023/07/16 08:27:05;;;;;;;8.40;2.30;;;;;;;18.67;63.88;101156.69;4996510;28;96469;-27
2023/07/16 08:29:30;;;;;;;4.70;2.00;;;;;;;18.64;64.57;101165.22;4996480;28;96755;-27
2023/07/16 08:31:56;;;;;;;5.80;1.98;;;;;;;18.71;64.36;101176.50;4995722;28;97875;-27
2023/07/16 08:34:21;;;;;;;5.95;2.83;;;;;;;18.65;63.97;101163.34;4996112;28;97807;-27
2023/07/16 08:36:46;;;;;;;13.07;2.63;;;;;;;18.81;63.88;101171.06;4995685;28;96807;-28
2023/07/16 08:39:12;;;;;;;4.18;2.13;;;;;;;18.84;63.61;101181.75;4996053;28;96778;-28
2023/07/16 08:41:38;;;;;;;6.97;2.70;;;;;;;18.89;63.84;101172.09;4996143;28;97724;-27
2023/07/16 08:44:04;;;;;;;4.82;2.10;;;;;;;18.97;63.48;101197.97;4994499;28;101435;-27
2023/07/16 08:46:30;;;;;;;8.48;2.17;;;;;;;18.92;63.42;101161.84;4996103;28;96680;-27
2023/07/16 08:48:57;;;;;;;5.00;1.90;;;;;;;18.83;63.44;101182.75;4995597;28;96998;-27
2023/07/16 08:51:24;;;;;;;9.10;2.28;;;;;;;18.95;64.01;101189.00;4994190;28;100776;-27
2023/07/16 08:53:50;;;;;;;5.15;2.20;;;;;;;19.18;63.75;101181.41;4994382;28;100743;-27
2023/07/16 08:56:15;;;;;;;4.85;2.28;;;;;;;19.40;62.81;101178.41;4995463;28;96607;-29
2023/07/16 08:58:44;;;;;;;4.30;1.95;;;;;;;19.43;63.51;101182.75;4995780;28;96847;-27
2023/07/16 09:01:10;;;;;;;7.30;2.42;;;;;;;19.22;62.94;101191.97;4995422;28;99315;-27
2023/07/16 09:03:35;;;;;;;6.05;2.28;;;;;;;19.15;63.22;101171.56;4995708;28;97330;-27
2023/07/16 09:06:02;;;;;;;4.35;2.13;;;;;;;19.12;63.35;101209.44;4995711;28;96609;-27
2023/07/16 09:08:28;;;;;;;3.42;2.08;;;;;;;19.08;63.23;101201.47;4994252;28;96812;-28
2023/07/16 09:10:57;;;;;;;7.90;2.05;;;;;;;18.98;63.42;101199.72;4995514;28;97964;-27
2023/07/16 09:13:29;;;;;;;7.90;2.33;;;;;;;19.04;63.90;101210.13;4994389;28;101241;-27
2023/07/16 09:15:54;;;;;;;;;;;;;;;19.09;63.83;101208.72;4994450;28;96534;-27
2023/07/16 09:18:25;;;;;;;4.25;2.00;;;;;;;19.37;63.28;101208.88;4995427;28;96805;-27
2023/07/16 09:20:58;;;;;;;3.30;1.75;;;;;;;19.44;63.27;101218.28;4995090;28;97973;-27
2023/07/16 09:23:25;;;;;;;5.43;1.73;;;;;;;19.84;61.96;101195.34;4993767;28;101072;-27
2023/07/16 09:25:51;;;;;;;4.35;2.17;;;;;;;20.26;60.39;101188.59;4995449;28;96737;-27
2023/07/16 09:28:18;;;;;;;4.43;1.90;;;;;;;20.42;60.08;101201.72;4995632;28;96802;-27
2023/07/16 09:30:44;;;;;;;7.13;1.90;;;;;;;20.31;60.59;101211.03;4977093;28;101166;-27
2023/07/16 09:33:31;;;;;;;9.10;2.40;;;;;;;20.22;60.69;101199.03;4995252;28;97167;-27
2023/07/16 09:35:56;;;;;;;6.80;1.70;;;;;;;20.50;60.77;101210.97;4993634;28;96751;-28
2023/07/16 09:38:24;;;;;;;7.88;2.22;;;;;;;20.42;60.36;101219.09;4995386;28;96896;-27
2023/07/16 09:40:49;;;;;;;4.35;2.13;;;;;;;20.39;60.96;101218.53;4993422;28;101727;-27
2023/07/16 09:43:15;;;;;;;6.65;2.15;;;;;;;20.20;60.76;101217.56;4995065;28;97789;-27
2023/07/16 09:45:42;;;;;;;4.70;2.05;;;;;;;20.03;61.40;101221.09;4993191;28;96625;-27
2023/07/16 09:48:09;;;;;;;6.57;1.98;;;;;;;19.90;61.60;101224.13;4993424;28;96853;-27
2023/07/16 09:50:36;;;;;;;4.75;1.98;;;;;;;19.96;61.72;101234.53;4993552;28;101203;-27
2023/07/16 09:53:04;;;;;;;11.70;2.50;;;;;;;19.92;61.49;101244.94;4993453;28;100717;-27
2023/07/16 09:55:33;;;;;;;5.72;1.95;;;;;;;20.16;61.01;101224.38;4993787;28;96617;-27
2023/07/16 09:58:01;;;;;;;5.40;2.17;;;;;;;20.54;60.44;101228.03;4994827;28;96665;-26
2023/07/16 10:00:27;;;;;;;7.25;2.25;;;;;;;20.51;59.95;101222.84;4993301;28;101048;-27
2023/07/16 10:02:54;;;;;;;8.02;2.17;;;;;;;20.41;59.80;101231.13;4993521;28;100861;-27
2023/07/16 10:05:28;;;;;;;4.15;2.00;;;;;;;20.41;59.52;101231.13;4994926;28;96459;-28
2023/07/16 10:07:59;;;;;;;6.28;2.05;;;;;;;20.64;60.29;101242.69;4993578;28;96822;-28
2023/07/16 10:10:40;;;;;;;5.25;1.80;;;;;;;20.68;59.56;101251.50;4994054;28;99317;-28
2023/07/16 10:13:07;;;;;;;3.97;1.58;;;;;;;20.83;59.56;101251.88;4993298;28;100795;-27
2023/07/16 10:15:32;;;;;;;5.40;2.13;;;;;;;20.83;59.91;101240.84;4993396;28;96677;-27
2023/07/16 10:17:57;;;;;;;8.15;1.77;;;;;;;20.98;59.52;101262.25;4994619;28;96822;-28
2023/07/16 10:20:42;;;;;;;3.90;1.85;;;;;;;21.35;58.94;101257.69;4994647;28;97903;-26
2023/07/16 10:23:15;;;;;;;3.45;1.80;;;;;;;21.26;57.47;101255.84;4992806;28;99334;-27
2023/07/16 10:25:57;;;;;;;3.97;1.38;;;;;;;21.28;58.07;101253.81;4994648;28;96599;-28
2023/07/16 10:28:22;;;;;;;;;;;;;;;21.36;58.24;101259.44;4999005;28;96722;-26
2023/07/16 10:30:49;;;;;;;2.17;1.13;;;;;;;21.58;58.22;101247.13;4998103;28;98020;-27
2023/07/16 10:33:14;;;;;;;2.75;1.42;;;;;;;21.96;57.78;101267.13;4996544;28;101319;-27
2023/07/16 10:35:45;;;;;;;4.15;1.40;;;;;;;22.06;54.97;101279.81;4997649;28;96656;-27
2023/07/16 10:38:11;;;;;;;3.90;1.58;;;;;;;22.03;55.24;101266.34;4996692;28;96859;-28
2023/07/16 10:40:44;;;;;;;2.05;1.27;;;;;;;21.98;55.52;101268.72;4997642;28;98987;-27
2023/07/16 10:43:09;;;;;;;3.15;1.40;;;;;;;21.93;55.15;101271.09;4997958;28;98157;-27
2023/07/16 10:45:35;;;;;;;4.85;1.77;;;;;;;22.14;54.51;101256.94;4998145;28;96569;-27
2023/07/16 10:48:00;;;;;;;3.42;1.73;;;;;;;22.06;54.00;101268.78;4997513;28;96853;-27
2023/07/16 10:50:25;;;;;;;2.63;1.08;;;;;;;21.95;54.87;101274.56;4996287;28;100839;-27
2023/07/16 10:52:56;;;;;;;3.50;1.60;;;;;;;22.01;54.86;101287.69;4998297;28;97291;-27
2023/07/16 10:55:22;;;;;;;2.28;1.30;;;;;;;21.97;55.24;101285.41;4996300;28;96760;-27
2023/07/16 10:57:49;;;;;;;3.15;1.30;;;;;;;21.80;55.39;101289.91;4996278;28;98450;-26
2023/07/16 11:00:15;;;;;;;4.90;1.67;;;;;;;21.88;54.95;101289.13;4995510;28;103431;-28
2023/07/16 11:02:41;;;;;;;4.97;1.25;;;;;;;21.85;55.29;101309.59;4995790;28;100854;-27
2023/07/16 11:05:19;;;;;;;3.00;0.90;;;;;;;21.65;54.46;101292.34;4997556;28;96655;-28
2023/07/16 11:07:48;;;;;;;2.15;1.15;;;;;;;21.95;55.48;101304.91;4996497;28;96757;-27
2023/07/16 11:10:17;;;;;;;2.33;1.30;;;;;;;22.18;54.40;101304.41;4997148;28;98006;-27
2023/07/16 11:12:43;;;;;;;2.33;1.10;;;;;;;22.38;54.15;101297.72;4995923;28;100693;-28
2023/07/16 11:15:10;;;;;;;4.25;1.20;;;;;;;22.63;53.95;101311.69;4996088;28;96709;-27
2023/07/16 11:17:39;;;;;;;5.45;0.93;;;;;;;22.92;52.85;101310.50;4996544;28;96846;-27
2023/07/16 11:20:07;;;;;;;1.95;1.08;;;;;;;22.57;52.89;101295.75;4995724;28;101153;-29